sensor_id;sensor_type;location;lat;lon;timestamp;P1;durP1;ratioP1;P2;durP2;ratioP2
67585;SDS011;55785;47.946;20.540;2022-12-10T00:01:37;13.13;;;7.63;;
67585;SDS011;55785;47.946;20.540;2022-12-10T00:04:03;15.77;;;8.98;;
67585;SDS011;55785;47.946;20.540;2022-12-10T00:06:31;14.60;;;9.43;;
67585;SDS011;55785;47.946;20.540;2022-12-10T00:08:58;15.50;;;9.90;;
67585;SDS011;55785;47.946;20.540;2022-12-10T00:11:25;17.85;;;9.73;;
67585;SDS011;55785;47.946;20.540;2022-12-10T00:13:50;19.42;;;9.30;;
67585;SDS011;55785;47.946;20.540;2022-12-10T00:16:17;13.20;;;7.95;;
67585;SDS011;55785;47.946;20.540;2022-12-10T00:18:44;13.23;;;7.50;;
67585;SDS011;55785;47.946;20.540;2022-12-10T00:21:15;10.63;;;6.32;;
67585;SDS011;55785;47.946;20.540;2022-12-10T00:23:41;11.70;;;6.97;;
67585;SDS011;55785;47.946;20.540;2022-12-10T00:26:20;14.63;;;8.40;;
67585;SDS011;55785;47.946;20.540;2022-12-10T00:28:48;14.18;;;7.93;;
67585;SDS011;55785;47.946;20.540;2022-12-10T00:31:15;13.93;;;8.65;;
67585;SDS011;55785;47.946;20.540;2022-12-10T00:33:45;19.38;;;11.02;;
67585;SDS011;55785;47.946;20.540;2022-12-10T00:36:15;22.02;;;10.90;;
67585;SDS011;55785;47.946;20.540;2022-12-10T00:38:43;21.08;;;10.45;;
67585;SDS011;55785;47.946;20.540;2022-12-10T00:41:09;19.15;;;9.88;;
67585;SDS011;55785;47.946;20.540;2022-12-10T00:43:35;15.98;;;8.25;;
67585;SDS011;55785;47.946;20.540;2022-12-10T00:46:01;12.48;;;7.55;;
67585;SDS011;55785;47.946;20.540;2022-12-10T00:48:26;13.10;;;7.75;;
67585;SDS011;55785;47.946;20.540;2022-12-10T00:50:59;13.13;;;7.80;;
67585;SDS011;55785;47.946;20.540;2022-12-10T00:55:54;12.68;;;7.00;;
67585;SDS011;55785;47.946;20.540;2022-12-10T00:58:20;14.43;;;6.97;;
67585;SDS011;55785;47.946;20.540;2022-12-10T01:00:46;11.50;;;6.68;;
67585;SDS011;55785;47.946;20.540;2022-12-10T01:03:11;13.48;;;7.97;;
67585;SDS011;55785;47.946;20.540;2022-12-10T01:05:37;13.70;;;8.00;;
67585;SDS011;55785;47.946;20.540;2022-12-10T01:08:03;16.92;;;8.30;;
67585;SDS011;55785;47.946;20.540;2022-12-10T01:10:28;15.75;;;8.52;;
67585;SDS011;55785;47.946;20.540;2022-12-10T01:12:54;20.42;;;11.15;;
67585;SDS011;55785;47.946;20.540;2022-12-10T01:15:19;23.20;;;12.82;;
67585;SDS011;55785;47.946;20.540;2022-12-10T01:17:44;21.30;;;12.30;;
67585;SDS011;55785;47.946;20.540;2022-12-10T01:20:10;28.50;;;14.48;;
67585;SDS011;55785;47.946;20.540;2022-12-10T01:22:35;28.33;;;15.13;;
67585;SDS011;55785;47.946;20.540;2022-12-10T01:25:00;32.13;;;16.42;;
67585;SDS011;55785;47.946;20.540;2022-12-10T01:27:26;31.98;;;15.27;;
67585;SDS011;55785;47.946;20.540;2022-12-10T01:29:52;32.50;;;16.38;;
67585;SDS011;55785;47.946;20.540;2022-12-10T01:32:17;35.97;;;18.45;;
67585;SDS011;55785;47.946;20.540;2022-12-10T01:34:42;39.30;;;18.52;;
67585;SDS011;55785;47.946;20.540;2022-12-10T01:37:08;36.17;;;16.13;;
67585;SDS011;55785;47.946;20.540;2022-12-10T01:39:33;28.33;;;13.55;;
67585;SDS011;55785;47.946;20.540;2022-12-10T01:41:59;28.70;;;13.93;;
67585;SDS011;55785;47.946;20.540;2022-12-10T01:46:51;18.17;;;10.40;;
67585;SDS011;55785;47.946;20.540;2022-12-10T01:49:19;19.25;;;10.15;;
67585;SDS011;55785;47.946;20.540;2022-12-10T01:51:45;20.77;;;10.30;;
67585;SDS011;55785;47.946;20.540;2022-12-10T01:54:19;16.27;;;9.57;;
67585;SDS011;55785;47.946;20.540;2022-12-10T01:56:45;14.82;;;9.20;;
67585;SDS011;55785;47.946;20.540;2022-12-10T01:59:11;16.38;;;9.23;;
67585;SDS011;55785;47.946;20.540;2022-12-10T02:04:25;19.65;;;8.95;;
67585;SDS011;55785;47.946;20.540;2022-12-10T02:06:56;17.15;;;10.25;;
67585;SDS011;55785;47.946;20.540;2022-12-10T02:14:32;19.05;;;10.30;;
67585;SDS011;55785;47.946;20.540;2022-12-10T02:16:59;27.25;;;10.07;;
67585;SDS011;55785;47.946;20.540;2022-12-10T02:21:51;17.00;;;9.48;;
67585;SDS011;55785;47.946;20.540;2022-12-10T02:24:19;15.55;;;9.05;;
67585;SDS011;55785;47.946;20.540;2022-12-10T02:29:12;19.80;;;8.40;;
67585;SDS011;55785;47.946;20.540;2022-12-10T02:31:38;17.42;;;8.15;;
67585;SDS011;55785;47.946;20.540;2022-12-10T02:34:05;13.77;;;8.32;;
67585;SDS011;55785;47.946;20.540;2022-12-10T02:36:32;14.80;;;8.00;;
67585;SDS011;55785;47.946;20.540;2022-12-10T02:38:59;12.25;;;8.05;;
67585;SDS011;55785;47.946;20.540;2022-12-10T02:41:28;13.30;;;7.82;;
67585;SDS011;55785;47.946;20.540;2022-12-10T02:43:55;12.82;;;7.88;;
67585;SDS011;55785;47.946;20.540;2022-12-10T02:46:22;13.25;;;7.63;;
67585;SDS011;55785;47.946;20.540;2022-12-10T02:48:49;16.20;;;7.85;;
67585;SDS011;55785;47.946;20.540;2022-12-10T02:51:15;15.65;;;8.13;;
67585;SDS011;55785;47.946;20.540;2022-12-10T02:53:43;13.95;;;7.53;;
67585;SDS011;55785;47.946;20.540;2022-12-10T02:56:20;14.93;;;7.45;;
67585;SDS011;55785;47.946;20.540;2022-12-10T03:01:36;10.52;;;6.90;;
67585;SDS011;55785;47.946;20.540;2022-12-10T03:06:36;12.10;;;7.30;;
67585;SDS011;55785;47.946;20.540;2022-12-10T03:09:06;16.98;;;8.63;;
67585;SDS011;55785;47.946;20.540;2022-12-10T03:11:32;17.73;;;9.45;;
67585;SDS011;55785;47.946;20.540;2022-12-10T03:16:42;18.85;;;9.20;;
67585;SDS011;55785;47.946;20.540;2022-12-10T03:19:16;14.63;;;7.50;;
67585;SDS011;55785;47.946;20.540;2022-12-10T03:21:42;16.27;;;8.00;;
67585;SDS011;55785;47.946;20.540;2022-12-10T03:24:09;16.58;;;7.60;;
67585;SDS011;55785;47.946;20.540;2022-12-10T03:26:34;14.50;;;6.63;;
67585;SDS011;55785;47.946;20.540;2022-12-10T03:29:05;10.57;;;6.65;;
67585;SDS011;55785;47.946;20.540;2022-12-10T03:31:31;12.93;;;7.07;;
67585;SDS011;55785;47.946;20.540;2022-12-10T03:33:59;10.70;;;7.03;;
67585;SDS011;55785;47.946;20.540;2022-12-10T03:36:24;12.63;;;6.95;;
67585;SDS011;55785;47.946;20.540;2022-12-10T03:38:50;16.75;;;7.15;;
67585;SDS011;55785;47.946;20.540;2022-12-10T03:41:15;11.45;;;6.70;;
67585;SDS011;55785;47.946;20.540;2022-12-10T03:43:50;12.95;;;7.03;;
67585;SDS011;55785;47.946;20.540;2022-12-10T03:46:16;15.40;;;7.47;;
67585;SDS011;55785;47.946;20.540;2022-12-10T03:48:41;11.98;;;6.72;;
67585;SDS011;55785;47.946;20.540;2022-12-10T03:51:06;13.32;;;7.05;;
67585;SDS011;55785;47.946;20.540;2022-12-10T03:53:31;17.20;;;7.38;;
67585;SDS011;55785;47.946;20.540;2022-12-10T03:55:56;11.15;;;7.07;;
67585;SDS011;55785;47.946;20.540;2022-12-10T03:58:22;14.25;;;6.97;;
67585;SDS011;55785;47.946;20.540;2022-12-10T04:00:47;13.52;;;7.20;;
67585;SDS011;55785;47.946;20.540;2022-12-10T04:03:12;12.05;;;6.97;;
67585;SDS011;55785;47.946;20.540;2022-12-10T04:05:37;19.08;;;8.02;;
67585;SDS011;55785;47.946;20.540;2022-12-10T04:08:02;16.08;;;8.43;;
67585;SDS011;55785;47.946;20.540;2022-12-10T04:10:28;15.45;;;7.72;;
67585;SDS011;55785;47.946;20.540;2022-12-10T04:12:53;19.45;;;8.95;;
67585;SDS011;55785;47.946;20.540;2022-12-10T04:15:18;24.27;;;10.18;;
67585;SDS011;55785;47.946;20.540;2022-12-10T04:17:43;21.40;;;10.02;;
67585;SDS011;55785;47.946;20.540;2022-12-10T04:20:08;24.38;;;10.32;;
67585;SDS011;55785;47.946;20.540;2022-12-10T04:22:34;24.75;;;10.18;;
67585;SDS011;55785;47.946;20.540;2022-12-10T04:24:59;31.50;;;10.52;;
67585;SDS011;55785;47.946;20.540;2022-12-10T04:27:25;22.60;;;10.15;;
67585;SDS011;55785;47.946;20.540;2022-12-10T04:29:51;25.33;;;10.20;;
67585;SDS011;55785;47.946;20.540;2022-12-10T04:32:16;24.42;;;10.10;;
67585;SDS011;55785;47.946;20.540;2022-12-10T04:34:42;23.75;;;9.65;;
67585;SDS011;55785;47.946;20.540;2022-12-10T04:37:07;26.33;;;10.35;;
67585;SDS011;55785;47.946;20.540;2022-12-10T04:39:33;28.17;;;10.30;;
67585;SDS011;55785;47.946;20.540;2022-12-10T04:41:58;29.02;;;9.57;;
67585;SDS011;55785;47.946;20.540;2022-12-10T04:44:24;35.78;;;10.32;;
67585;SDS011;55785;47.946;20.540;2022-12-10T04:46:49;29.65;;;10.25;;
67585;SDS011;55785;47.946;20.540;2022-12-10T04:49:14;25.83;;;10.35;;
67585;SDS011;55785;47.946;20.540;2022-12-10T04:51:40;23.67;;;10.43;;
67585;SDS011;55785;47.946;20.540;2022-12-10T04:54:06;33.35;;;11.07;;
67585;SDS011;55785;47.946;20.540;2022-12-10T04:56:31;47.35;;;10.95;;
67585;SDS011;55785;47.946;20.540;2022-12-10T04:58:56;44.08;;;10.27;;
67585;SDS011;55785;47.946;20.540;2022-12-10T05:01:22;21.75;;;9.15;;
67585;SDS011;55785;47.946;20.540;2022-12-10T05:03:47;38.65;;;9.85;;
67585;SDS011;55785;47.946;20.540;2022-12-10T05:06:13;22.73;;;9.05;;
67585;SDS011;55785;47.946;20.540;2022-12-10T05:08:39;21.83;;;9.13;;
67585;SDS011;55785;47.946;20.540;2022-12-10T05:11:06;52.33;;;11.68;;
67585;SDS011;55785;47.946;20.540;2022-12-10T05:13:31;100.33;;;12.77;;
67585;SDS011;55785;47.946;20.540;2022-12-10T05:15:57;133.20;;;13.02;;
67585;SDS011;55785;47.946;20.540;2022-12-10T05:18:22;183.70;;;13.23;;
67585;SDS011;55785;47.946;20.540;2022-12-10T05:20:47;202.05;;;13.45;;
67585;SDS011;55785;47.946;20.540;2022-12-10T05:23:12;239.30;;;14.90;;
67585;SDS011;55785;47.946;20.540;2022-12-10T05:25:37;197.83;;;14.17;;
67585;SDS011;55785;47.946;20.540;2022-12-10T05:28:03;218.43;;;14.80;;
67585;SDS011;55785;47.946;20.540;2022-12-10T05:30:28;260.67;;;14.53;;
67585;SDS011;55785;47.946;20.540;2022-12-10T05:32:53;307.43;;;16.97;;
67585;SDS011;55785;47.946;20.540;2022-12-10T05:35:18;286.97;;;17.60;;
67585;SDS011;55785;47.946;20.540;2022-12-10T05:37:43;220.53;;;15.10;;
67585;SDS011;55785;47.946;20.540;2022-12-10T05:40:12;244.95;;;16.92;;
67585;SDS011;55785;47.946;20.540;2022-12-10T05:42:37;190.38;;;14.15;;
67585;SDS011;55785;47.946;20.540;2022-12-10T05:45:02;105.40;;;13.55;;
67585;SDS011;55785;47.946;20.540;2022-12-10T05:47:27;145.95;;;13.25;;
67585;SDS011;55785;47.946;20.540;2022-12-10T05:49:52;73.03;;;11.90;;
67585;SDS011;55785;47.946;20.540;2022-12-10T05:52:18;91.07;;;11.57;;
67585;SDS011;55785;47.946;20.540;2022-12-10T05:54:43;84.38;;;12.57;;
67585;SDS011;55785;47.946;20.540;2022-12-10T05:57:11;74.90;;;10.65;;
67585;SDS011;55785;47.946;20.540;2022-12-10T05:59:36;110.20;;;11.95;;
67585;SDS011;55785;47.946;20.540;2022-12-10T06:02:01;124.72;;;11.63;;
67585;SDS011;55785;47.946;20.540;2022-12-10T06:04:27;76.18;;;11.65;;
67585;SDS011;55785;47.946;20.540;2022-12-10T06:06:52;92.95;;;11.85;;
67585;SDS011;55785;47.946;20.540;2022-12-10T06:09:17;45.25;;;10.63;;
67585;SDS011;55785;47.946;20.540;2022-12-10T06:11:42;166.02;;;14.27;;
67585;SDS011;55785;47.946;20.540;2022-12-10T06:14:08;149.98;;;13.13;;
67585;SDS011;55785;47.946;20.540;2022-12-10T06:16:33;149.25;;;13.93;;
67585;SDS011;55785;47.946;20.540;2022-12-10T06:18:58;155.70;;;15.93;;
67585;SDS011;55785;47.946;20.540;2022-12-10T06:21:24;161.40;;;17.00;;
67585;SDS011;55785;47.946;20.540;2022-12-10T06:23:50;197.73;;;16.88;;
67585;SDS011;55785;47.946;20.540;2022-12-10T06:26:16;70.13;;;15.88;;
67585;SDS011;55785;47.946;20.540;2022-12-10T06:28:43;41.90;;;14.50;;
67585;SDS011;55785;47.946;20.540;2022-12-10T06:31:09;100.03;;;14.48;;
67585;SDS011;55785;47.946;20.540;2022-12-10T06:33:34;50.45;;;13.30;;
67585;SDS011;55785;47.946;20.540;2022-12-10T06:36:02;56.83;;;12.45;;
67585;SDS011;55785;47.946;20.540;2022-12-10T06:38:27;21.17;;;10.02;;
67585;SDS011;55785;47.946;20.540;2022-12-10T06:40:52;17.45;;;9.13;;
67585;SDS011;55785;47.946;20.540;2022-12-10T06:43:18;16.70;;;9.15;;
67585;SDS011;55785;47.946;20.540;2022-12-10T06:45:43;14.68;;;8.18;;
67585;SDS011;55785;47.946;20.540;2022-12-10T06:48:08;13.68;;;8.93;;
67585;SDS011;55785;47.946;20.540;2022-12-10T06:50:34;33.03;;;22.00;;
67585;SDS011;55785;47.946;20.540;2022-12-10T06:52:59;38.10;;;28.40;;
67585;SDS011;55785;47.946;20.540;2022-12-10T06:55:24;19.70;;;13.40;;
67585;SDS011;55785;47.946;20.540;2022-12-10T06:57:50;15.35;;;8.43;;
67585;SDS011;55785;47.946;20.540;2022-12-10T07:00:16;14.63;;;9.68;;
67585;SDS011;55785;47.946;20.540;2022-12-10T07:02:41;14.73;;;9.20;;
67585;SDS011;55785;47.946;20.540;2022-12-10T07:05:06;16.02;;;9.82;;
67585;SDS011;55785;47.946;20.540;2022-12-10T07:07:31;16.90;;;12.23;;
67585;SDS011;55785;47.946;20.540;2022-12-10T07:09:56;21.83;;;14.73;;
67585;SDS011;55785;47.946;20.540;2022-12-10T07:12:22;29.05;;;18.08;;
67585;SDS011;55785;47.946;20.540;2022-12-10T07:14:47;21.25;;;14.60;;
67585;SDS011;55785;47.946;20.540;2022-12-10T07:17:12;20.25;;;12.65;;
67585;SDS011;55785;47.946;20.540;2022-12-10T07:19:37;20.10;;;12.95;;
67585;SDS011;55785;47.946;20.540;2022-12-10T07:22:02;19.08;;;11.82;;
67585;SDS011;55785;47.946;20.540;2022-12-10T07:24:28;17.58;;;10.73;;
67585;SDS011;55785;47.946;20.540;2022-12-10T07:26:53;15.82;;;10.38;;
67585;SDS011;55785;47.946;20.540;2022-12-10T07:29:19;12.48;;;8.85;;
67585;SDS011;55785;47.946;20.540;2022-12-10T07:31:44;15.63;;;9.88;;
67585;SDS011;55785;47.946;20.540;2022-12-10T07:34:10;20.77;;;11.35;;
67585;SDS011;55785;47.946;20.540;2022-12-10T07:36:35;19.13;;;10.73;;
67585;SDS011;55785;47.946;20.540;2022-12-10T07:39:01;16.73;;;10.38;;
67585;SDS011;55785;47.946;20.540;2022-12-10T07:41:26;17.60;;;10.02;;
67585;SDS011;55785;47.946;20.540;2022-12-10T07:43:51;17.23;;;10.77;;
67585;SDS011;55785;47.946;20.540;2022-12-10T07:46:18;19.67;;;11.63;;
67585;SDS011;55785;47.946;20.540;2022-12-10T07:48:44;16.58;;;10.77;;
67585;SDS011;55785;47.946;20.540;2022-12-10T07:51:10;21.88;;;12.05;;
67585;SDS011;55785;47.946;20.540;2022-12-10T07:53:35;21.15;;;13.07;;
67585;SDS011;55785;47.946;20.540;2022-12-10T07:56:01;20.73;;;11.73;;
67585;SDS011;55785;47.946;20.540;2022-12-10T07:58:26;28.90;;;15.55;;
67585;SDS011;55785;47.946;20.540;2022-12-10T08:00:51;21.88;;;12.75;;
67585;SDS011;55785;47.946;20.540;2022-12-10T08:03:16;28.70;;;16.38;;
67585;SDS011;55785;47.946;20.540;2022-12-10T08:05:41;29.55;;;16.33;;
67585;SDS011;55785;47.946;20.540;2022-12-10T08:08:07;33.60;;;18.73;;
67585;SDS011;55785;47.946;20.540;2022-12-10T08:10:35;35.58;;;17.73;;
67585;SDS011;55785;47.946;20.540;2022-12-10T08:13:01;30.15;;;17.95;;
67585;SDS011;55785;47.946;20.540;2022-12-10T08:15:26;22.60;;;12.32;;
67585;SDS011;55785;47.946;20.540;2022-12-10T08:17:51;20.20;;;10.07;;
67585;SDS011;55785;47.946;20.540;2022-12-10T08:20:16;20.15;;;9.50;;
67585;SDS011;55785;47.946;20.540;2022-12-10T08:22:42;24.20;;;9.90;;
67585;SDS011;55785;47.946;20.540;2022-12-10T08:25:07;25.17;;;9.98;;
67585;SDS011;55785;47.946;20.540;2022-12-10T08:27:32;21.70;;;8.90;;
67585;SDS011;55785;47.946;20.540;2022-12-10T08:29:57;23.85;;;8.98;;
67585;SDS011;55785;47.946;20.540;2022-12-10T08:32:22;34.28;;;8.90;;
67585;SDS011;55785;47.946;20.540;2022-12-10T08:34:48;26.23;;;8.75;;
67585;SDS011;55785;47.946;20.540;2022-12-10T08:37:13;25.65;;;8.27;;
67585;SDS011;55785;47.946;20.540;2022-12-10T08:39:38;37.85;;;8.68;;
67585;SDS011;55785;47.946;20.540;2022-12-10T08:42:03;32.65;;;9.35;;
67585;SDS011;55785;47.946;20.540;2022-12-10T08:44:28;34.67;;;8.07;;
67585;SDS011;55785;47.946;20.540;2022-12-10T08:46:54;42.90;;;8.13;;
67585;SDS011;55785;47.946;20.540;2022-12-10T08:49:19;36.38;;;7.85;;
67585;SDS011;55785;47.946;20.540;2022-12-10T08:51:44;35.72;;;7.80;;
67585;SDS011;55785;47.946;20.540;2022-12-10T08:54:09;43.78;;;8.27;;
67585;SDS011;55785;47.946;20.540;2022-12-10T08:56:34;45.63;;;8.35;;
67585;SDS011;55785;47.946;20.540;2022-12-10T08:59:00;54.90;;;8.32;;
67585;SDS011;55785;47.946;20.540;2022-12-10T09:01:25;46.28;;;8.48;;
67585;SDS011;55785;47.946;20.540;2022-12-10T09:03:50;53.67;;;8.18;;
67585;SDS011;55785;47.946;20.540;2022-12-10T09:06:16;38.30;;;7.85;;
67585;SDS011;55785;47.946;20.540;2022-12-10T09:08:42;42.13;;;9.02;;
67585;SDS011;55785;47.946;20.540;2022-12-10T09:11:09;30.23;;;8.55;;
67585;SDS011;55785;47.946;20.540;2022-12-10T09:13:34;40.72;;;8.20;;
67585;SDS011;55785;47.946;20.540;2022-12-10T09:16:00;25.55;;;7.97;;
67585;SDS011;55785;47.946;20.540;2022-12-10T09:18:25;47.72;;;8.50;;
67585;SDS011;55785;47.946;20.540;2022-12-10T09:20:50;46.78;;;7.45;;
67585;SDS011;55785;47.946;20.540;2022-12-10T09:23:15;31.00;;;8.98;;
67585;SDS011;55785;47.946;20.540;2022-12-10T09:25:41;44.67;;;8.98;;
67585;SDS011;55785;47.946;20.540;2022-12-10T09:28:06;35.78;;;7.72;;
67585;SDS011;55785;47.946;20.540;2022-12-10T09:30:31;28.90;;;8.27;;
67585;SDS011;55785;47.946;20.540;2022-12-10T09:32:56;37.35;;;9.02;;
67585;SDS011;55785;47.946;20.540;2022-12-10T09:35:21;25.40;;;7.80;;
67585;SDS011;55785;47.946;20.540;2022-12-10T09:37:46;31.05;;;7.60;;
67585;SDS011;55785;47.946;20.540;2022-12-10T09:40:15;35.47;;;8.27;;
67585;SDS011;55785;47.946;20.540;2022-12-10T09:48:15;42.53;;;7.80;;
67585;SDS011;55785;47.946;20.540;2022-12-10T09:53:17;29.70;;;8.50;;
67585;SDS011;55785;47.946;20.540;2022-12-10T09:55:45;28.52;;;8.50;;
67585;SDS011;55785;47.946;20.540;2022-12-10T09:58:16;20.67;;;8.05;;
67585;SDS011;55785;47.946;20.540;2022-12-10T10:00:42;38.92;;;8.63;;
67585;SDS011;55785;47.946;20.540;2022-12-10T10:03:12;23.85;;;8.75;;
67585;SDS011;55785;47.946;20.540;2022-12-10T10:05:38;22.27;;;8.32;;
67585;SDS011;55785;47.946;20.540;2022-12-10T10:08:05;24.70;;;8.60;;
67585;SDS011;55785;47.946;20.540;2022-12-10T10:10:35;23.83;;;8.63;;
67585;SDS011;55785;47.946;20.540;2022-12-10T10:13:11;18.02;;;7.75;;
67585;SDS011;55785;47.946;20.540;2022-12-10T10:15:39;21.35;;;8.63;;
67585;SDS011;55785;47.946;20.540;2022-12-10T10:18:09;17.70;;;8.35;;
67585;SDS011;55785;47.946;20.540;2022-12-10T10:20:36;25.08;;;9.43;;
67585;SDS011;55785;47.946;20.540;2022-12-10T10:23:02;24.02;;;8.98;;
67585;SDS011;55785;47.946;20.540;2022-12-10T10:25:27;23.45;;;8.68;;
67585;SDS011;55785;47.946;20.540;2022-12-10T10:27:53;22.15;;;8.50;;
67585;SDS011;55785;47.946;20.540;2022-12-10T10:30:19;20.48;;;9.20;;
67585;SDS011;55785;47.946;20.540;2022-12-10T10:38:07;16.90;;;8.35;;
67585;SDS011;55785;47.946;20.540;2022-12-10T10:40:42;17.10;;;8.55;;
67585;SDS011;55785;47.946;20.540;2022-12-10T10:43:13;16.60;;;8.02;;
67585;SDS011;55785;47.946;20.540;2022-12-10T10:45:40;17.60;;;8.77;;
67585;SDS011;55785;47.946;20.540;2022-12-10T10:50:32;21.55;;;9.82;;
67585;SDS011;55785;47.946;20.540;2022-12-10T10:53:00;26.27;;;11.23;;
67585;SDS011;55785;47.946;20.540;2022-12-10T10:55:32;23.00;;;11.35;;
67585;SDS011;55785;47.946;20.540;2022-12-10T10:57:58;21.98;;;11.32;;
67585;SDS011;55785;47.946;20.540;2022-12-10T11:00:23;25.85;;;11.00;;
67585;SDS011;55785;47.946;20.540;2022-12-10T11:02:48;23.20;;;11.70;;
67585;SDS011;55785;47.946;20.540;2022-12-10T11:05:20;21.35;;;10.45;;
67585;SDS011;55785;47.946;20.540;2022-12-10T11:07:46;23.48;;;10.27;;
67585;SDS011;55785;47.946;20.540;2022-12-10T11:10:21;26.48;;;11.50;;
67585;SDS011;55785;47.946;20.540;2022-12-10T11:12:54;23.35;;;11.02;;
67585;SDS011;55785;47.946;20.540;2022-12-10T11:17:49;20.23;;;10.27;;
67585;SDS011;55785;47.946;20.540;2022-12-10T11:20:19;20.27;;;11.02;;
67585;SDS011;55785;47.946;20.540;2022-12-10T11:22:51;144.00;;;70.85;;
67585;SDS011;55785;47.946;20.540;2022-12-10T11:25:16;46.85;;;23.23;;
67585;SDS011;55785;47.946;20.540;2022-12-10T11:30:15;24.13;;;13.13;;
67585;SDS011;55785;47.946;20.540;2022-12-10T11:32:46;12.40;;;7.05;;
67585;SDS011;55785;47.946;20.540;2022-12-10T11:50:52;8.73;;;5.20;;
67585;SDS011;55785;47.946;20.540;2022-12-10T11:56:22;7.70;;;4.40;;
67585;SDS011;55785;47.946;20.540;2022-12-10T12:03:55;7.45;;;4.53;;
67585;SDS011;55785;47.946;20.540;2022-12-10T12:14:22;5.30;;;3.50;;
67585;SDS011;55785;47.946;20.540;2022-12-10T12:16:56;5.70;;;3.30;;
67585;SDS011;55785;47.946;20.540;2022-12-10T12:19:25;5.55;;;3.40;;
67585;SDS011;55785;47.946;20.540;2022-12-10T12:21:53;6.70;;;3.65;;
67585;SDS011;55785;47.946;20.540;2022-12-10T12:24:24;6.90;;;3.72;;
67585;SDS011;55785;47.946;20.540;2022-12-10T12:26:53;5.75;;;3.30;;
67585;SDS011;55785;47.946;20.540;2022-12-10T12:32:17;6.38;;;3.70;;
67585;SDS011;55785;47.946;20.540;2022-12-10T12:36:58;7.25;;;4.22;;
67585;SDS011;55785;47.946;20.540;2022-12-10T12:44:29;7.28;;;4.53;;
67585;SDS011;55785;47.946;20.540;2022-12-10T12:49:42;9.60;;;5.55;;
67585;SDS011;55785;47.946;20.540;2022-12-10T12:54:42;9.85;;;5.95;;
67585;SDS011;55785;47.946;20.540;2022-12-10T12:57:23;10.48;;;5.72;;
67585;SDS011;55785;47.946;20.540;2022-12-10T13:04:47;11.77;;;6.10;;
67585;SDS011;55785;47.946;20.540;2022-12-10T13:09:47;11.93;;;7.17;;
67585;SDS011;55785;47.946;20.540;2022-12-10T13:12:17;13.43;;;7.47;;
67585;SDS011;55785;47.946;20.540;2022-12-10T13:19:40;13.20;;;8.00;;
67585;SDS011;55785;47.946;20.540;2022-12-10T13:27:28;13.23;;;7.77;;
67585;SDS011;55785;47.946;20.540;2022-12-10T13:29:56;13.73;;;7.93;;
67585;SDS011;55785;47.946;20.540;2022-12-10T13:40:14;14.20;;;7.57;;
67585;SDS011;55785;47.946;20.540;2022-12-10T13:42:50;13.90;;;7.77;;
67585;SDS011;55785;47.946;20.540;2022-12-10T13:47:47;16.07;;;8.17;;
67585;SDS011;55785;47.946;20.540;2022-12-10T13:50:35;13.60;;;7.33;;
67585;SDS011;55785;47.946;20.540;2022-12-10T13:55:39;13.77;;;7.70;;
67585;SDS011;55785;47.946;20.540;2022-12-10T14:06:01;13.83;;;7.90;;
67585;SDS011;55785;47.946;20.540;2022-12-10T14:08:32;16.67;;;8.43;;
67585;SDS011;55785;47.946;20.540;2022-12-10T14:10:57;15.67;;;8.20;;
67585;SDS011;55785;47.946;20.540;2022-12-10T14:13:25;12.87;;;7.43;;
67585;SDS011;55785;47.946;20.540;2022-12-10T14:15:55;16.20;;;8.00;;
67585;SDS011;55785;47.946;20.540;2022-12-10T14:18:23;15.20;;;7.70;;
67585;SDS011;55785;47.946;20.540;2022-12-10T14:20:49;14.20;;;7.13;;
67585;SDS011;55785;47.946;20.540;2022-12-10T14:23:26;13.13;;;7.68;;
67585;SDS011;55785;47.946;20.540;2022-12-10T14:25:51;13.90;;;7.30;;
67585;SDS011;55785;47.946;20.540;2022-12-10T14:28:17;12.20;;;7.10;;
67585;SDS011;55785;47.946;20.540;2022-12-10T14:30:43;15.73;;;7.87;;
67585;SDS011;55785;47.946;20.540;2022-12-10T14:33:09;15.47;;;7.67;;
67585;SDS011;55785;47.946;20.540;2022-12-10T14:35:37;14.07;;;7.43;;
67585;SDS011;55785;47.946;20.540;2022-12-10T14:38:02;13.43;;;7.13;;
67585;SDS011;55785;47.946;20.540;2022-12-10T14:40:38;13.33;;;6.80;;
67585;SDS011;55785;47.946;20.540;2022-12-10T14:43:04;11.47;;;6.50;;
67585;SDS011;55785;47.946;20.540;2022-12-10T14:45:38;12.67;;;6.73;;
67585;SDS011;55785;47.946;20.540;2022-12-10T14:48:05;12.45;;;6.60;;
67585;SDS011;55785;47.946;20.540;2022-12-10T14:50:31;13.03;;;6.80;;
67585;SDS011;55785;47.946;20.540;2022-12-10T14:52:56;15.17;;;6.30;;
67585;SDS011;55785;47.946;20.540;2022-12-10T14:55:21;13.15;;;6.95;;
67585;SDS011;55785;47.946;20.540;2022-12-10T14:57:58;11.27;;;6.13;;
67585;SDS011;55785;47.946;20.540;2022-12-10T15:00:24;13.53;;;7.03;;
67585;SDS011;55785;47.946;20.540;2022-12-10T15:02:56;14.25;;;8.63;;
67585;SDS011;55785;47.946;20.540;2022-12-10T15:05:24;14.13;;;8.70;;
67585;SDS011;55785;47.946;20.540;2022-12-10T15:07:57;9.60;;;5.88;;
67585;SDS011;55785;47.946;20.540;2022-12-10T15:10:24;8.63;;;5.40;;
67585;SDS011;55785;47.946;20.540;2022-12-10T15:12:50;11.07;;;5.73;;
67585;SDS011;55785;47.946;20.540;2022-12-10T15:15:24;9.55;;;5.15;;
67585;SDS011;55785;47.946;20.540;2022-12-10T15:20:26;6.97;;;4.20;;
67585;SDS011;55785;47.946;20.540;2022-12-10T15:22:51;6.57;;;4.23;;
67585;SDS011;55785;47.946;20.540;2022-12-10T15:25:19;8.13;;;4.10;;
67585;SDS011;55785;47.946;20.540;2022-12-10T15:27:51;8.33;;;4.43;;
67585;SDS011;55785;47.946;20.540;2022-12-10T15:30:37;7.35;;;4.43;;
67585;SDS011;55785;47.946;20.540;2022-12-10T15:33:02;8.57;;;4.47;;
67585;SDS011;55785;47.946;20.540;2022-12-10T15:35:28;7.10;;;4.03;;
67585;SDS011;55785;47.946;20.540;2022-12-10T15:37:53;12.53;;;7.10;;
67585;SDS011;55785;47.946;20.540;2022-12-10T15:40:23;10.10;;;6.37;;
67585;SDS011;55785;47.946;20.540;2022-12-10T15:42:49;12.17;;;5.20;;
67585;SDS011;55785;47.946;20.540;2022-12-10T15:45:21;8.70;;;4.10;;
67585;SDS011;55785;47.946;20.540;2022-12-10T15:47:47;10.17;;;4.23;;
67585;SDS011;55785;47.946;20.540;2022-12-10T15:50:13;7.87;;;4.57;;
67585;SDS011;55785;47.946;20.540;2022-12-10T15:52:38;8.43;;;4.25;;
67585;SDS011;55785;47.946;20.540;2022-12-10T15:55:03;6.53;;;3.87;;
67585;SDS011;55785;47.946;20.540;2022-12-10T15:57:30;6.90;;;4.18;;
67585;SDS011;55785;47.946;20.540;2022-12-10T15:59:59;9.52;;;5.43;;
67585;SDS011;55785;47.946;20.540;2022-12-10T16:04:56;12.43;;;7.90;;
67585;SDS011;55785;47.946;20.540;2022-12-10T16:07:21;6.40;;;3.50;;
67585;SDS011;55785;47.946;20.540;2022-12-10T16:09:47;4.93;;;3.07;;
67585;SDS011;55785;47.946;20.540;2022-12-10T16:12:15;6.80;;;4.77;;
67585;SDS011;55785;47.946;20.540;2022-12-10T16:14:42;7.55;;;4.43;;
67585;SDS011;55785;47.946;20.540;2022-12-10T16:17:09;3.73;;;2.70;;
67585;SDS011;55785;47.946;20.540;2022-12-10T16:19:35;5.73;;;2.73;;
67585;SDS011;55785;47.946;20.540;2022-12-10T16:22:00;6.40;;;3.33;;
67585;SDS011;55785;47.946;20.540;2022-12-10T16:24:26;6.30;;;3.07;;
67585;SDS011;55785;47.946;20.540;2022-12-10T16:26:51;5.60;;;3.37;;
67585;SDS011;55785;47.946;20.540;2022-12-10T16:29:16;7.03;;;3.27;;
67585;SDS011;55785;47.946;20.540;2022-12-10T16:31:41;5.43;;;2.80;;
67585;SDS011;55785;47.946;20.540;2022-12-10T16:34:06;4.23;;;3.00;;